Saratoga, California
Current Conditions -  °F | °C
As of 9:53 PM on Wednesday 17 Dec 2014 (Local Time) from KSJC Reporting Station
Broken Clouds Broken Clouds  
Wind Chill: 51°   Ceiling: 5000
Heat Index: 51°   Visibility: 10mi
Dew Point: 46°   Wind: 12mph
Humidity: 83%   Direction: 100°E
Pressure: 30.07"   Gusts: NA
Location:  37.27°N, 122.01°W
Report Text: KSJC 180553Z 10010KT 10SM FEW025 SCT037 BKN050 11/08 A3007 RMK AO2 RAE02B25E45 SLP183 P0000 60015 T01060078 10133 20106 50001
Loading
Personal Weather Stations






























Interactive Weather Map New forecast layout! Learn more

10-Day Weather Forecast

Advertisements
Track Severe Weather on mobile